sensor_id;sensor_type;location;lat;lon;timestamp;P1;durP1;ratioP1;P2;durP2;ratioP2
82705;SDS011;72428;41.978;21.464;2023-12-04T00:00:44;24.05;;;15.30;;
82705;SDS011;72428;41.978;21.464;2023-12-04T00:03:10;30.20;;;16.55;;
82705;SDS011;72428;41.978;21.464;2023-12-04T00:05:36;22.25;;;13.77;;
82705;SDS011;72428;41.978;21.464;2023-12-04T00:08:02;25.17;;;17.83;;
82705;SDS011;72428;41.978;21.464;2023-12-04T00:10:28;24.02;;;16.45;;
82705;SDS011;72428;41.978;21.464;2023-12-04T00:12:54;22.05;;;14.10;;
82705;SDS011;72428;41.978;21.464;2023-12-04T00:15:20;24.67;;;11.93;;
82705;SDS011;72428;41.978;21.464;2023-12-04T00:17:46;22.55;;;13.73;;
82705;SDS011;72428;41.978;21.464;2023-12-04T00:20:12;21.25;;;12.38;;
82705;SDS011;72428;41.978;21.464;2023-12-04T00:22:38;20.58;;;13.55;;
82705;SDS011;72428;41.978;21.464;2023-12-04T00:25:05;22.75;;;13.73;;
82705;SDS011;72428;41.978;21.464;2023-12-04T00:27:32;23.75;;;13.00;;
82705;SDS011;72428;41.978;21.464;2023-12-04T00:29:58;26.38;;;14.70;;
82705;SDS011;72428;41.978;21.464;2023-12-04T00:32:24;21.02;;;12.07;;
82705;SDS011;72428;41.978;21.464;2023-12-04T00:34:50;20.02;;;11.98;;
82705;SDS011;72428;41.978;21.464;2023-12-04T00:37:16;19.60;;;12.77;;
82705;SDS011;72428;41.978;21.464;2023-12-04T00:39:42;19.88;;;13.02;;
82705;SDS011;72428;41.978;21.464;2023-12-04T00:42:08;19.60;;;11.63;;
82705;SDS011;72428;41.978;21.464;2023-12-04T00:44:34;18.77;;;13.05;;
82705;SDS011;72428;41.978;21.464;2023-12-04T00:47:00;17.63;;;10.65;;
82705;SDS011;72428;41.978;21.464;2023-12-04T00:49:27;17.13;;;10.20;;
82705;SDS011;72428;41.978;21.464;2023-12-04T00:51:53;18.08;;;10.02;;
82705;SDS011;72428;41.978;21.464;2023-12-04T00:54:19;21.00;;;12.98;;
82705;SDS011;72428;41.978;21.464;2023-12-04T00:56:45;18.90;;;12.75;;
82705;SDS011;72428;41.978;21.464;2023-12-04T00:59:11;19.67;;;11.13;;
82705;SDS011;72428;41.978;21.464;2023-12-04T01:01:37;21.42;;;12.73;;
82705;SDS011;72428;41.978;21.464;2023-12-04T01:04:03;20.95;;;13.57;;
82705;SDS011;72428;41.978;21.464;2023-12-04T01:06:29;18.55;;;11.38;;
82705;SDS011;72428;41.978;21.464;2023-12-04T01:08:55;21.15;;;12.18;;
82705;SDS011;72428;41.978;21.464;2023-12-04T01:11:23;20.00;;;13.35;;
82705;SDS011;72428;41.978;21.464;2023-12-04T01:13:49;25.67;;;14.30;;
82705;SDS011;72428;41.978;21.464;2023-12-04T01:16:15;20.15;;;11.23;;
82705;SDS011;72428;41.978;21.464;2023-12-04T01:18:45;14.82;;;9.35;;
82705;SDS011;72428;41.978;21.464;2023-12-04T01:21:11;18.08;;;11.95;;
82705;SDS011;72428;41.978;21.464;2023-12-04T01:23:37;14.88;;;11.13;;
82705;SDS011;72428;41.978;21.464;2023-12-04T01:26:03;18.65;;;9.65;;
82705;SDS011;72428;41.978;21.464;2023-12-04T01:28:29;18.77;;;10.93;;
82705;SDS011;72428;41.978;21.464;2023-12-04T01:30:56;15.98;;;10.02;;
82705;SDS011;72428;41.978;21.464;2023-12-04T01:33:22;9.63;;;6.95;;
82705;SDS011;72428;41.978;21.464;2023-12-04T01:35:48;15.65;;;10.55;;
82705;SDS011;72428;41.978;21.464;2023-12-04T01:38:14;20.02;;;10.18;;
82705;SDS011;72428;41.978;21.464;2023-12-04T01:40:40;19.33;;;10.15;;
82705;SDS011;72428;41.978;21.464;2023-12-04T01:43:06;15.85;;;8.02;;
82705;SDS011;72428;41.978;21.464;2023-12-04T01:45:32;13.30;;;7.38;;
82705;SDS011;72428;41.978;21.464;2023-12-04T01:47:58;18.48;;;9.23;;
82705;SDS011;72428;41.978;21.464;2023-12-04T01:50:25;18.17;;;10.25;;
82705;SDS011;72428;41.978;21.464;2023-12-04T01:52:51;22.08;;;10.60;;
82705;SDS011;72428;41.978;21.464;2023-12-04T01:55:18;20.75;;;9.30;;
82705;SDS011;72428;41.978;21.464;2023-12-04T01:57:44;25.88;;;9.77;;
82705;SDS011;72428;41.978;21.464;2023-12-04T02:00:10;16.33;;;9.68;;
82705;SDS011;72428;41.978;21.464;2023-12-04T02:02:40;18.88;;;9.88;;
82705;SDS011;72428;41.978;21.464;2023-12-04T02:05:09;25.25;;;7.85;;
82705;SDS011;72428;41.978;21.464;2023-12-04T02:07:37;17.23;;;8.65;;
82705;SDS011;72428;41.978;21.464;2023-12-04T02:10:03;22.17;;;10.55;;
82705;SDS011;72428;41.978;21.464;2023-12-04T02:12:29;14.85;;;8.30;;
82705;SDS011;72428;41.978;21.464;2023-12-04T02:14:56;16.48;;;9.15;;
82705;SDS011;72428;41.978;21.464;2023-12-04T02:17:22;15.10;;;7.65;;
82705;SDS011;72428;41.978;21.464;2023-12-04T02:19:48;13.90;;;9.18;;
82705;SDS011;72428;41.978;21.464;2023-12-04T02:22:15;14.15;;;10.52;;
82705;SDS011;72428;41.978;21.464;2023-12-04T02:24:43;14.18;;;7.72;;
82705;SDS011;72428;41.978;21.464;2023-12-04T02:27:14;17.23;;;6.85;;
82705;SDS011;72428;41.978;21.464;2023-12-04T02:29:45;19.80;;;6.53;;
82705;SDS011;72428;41.978;21.464;2023-12-04T02:32:14;15.15;;;8.00;;
82705;SDS011;72428;41.978;21.464;2023-12-04T02:34:41;14.65;;;9.27;;
82705;SDS011;72428;41.978;21.464;2023-12-04T02:37:09;13.18;;;7.57;;
82705;SDS011;72428;41.978;21.464;2023-12-04T02:39:36;12.52;;;7.70;;
82705;SDS011;72428;41.978;21.464;2023-12-04T02:42:02;13.50;;;8.50;;
82705;SDS011;72428;41.978;21.464;2023-12-04T02:44:28;16.05;;;9.75;;
82705;SDS011;72428;41.978;21.464;2023-12-04T02:46:55;11.95;;;8.52;;
82705;SDS011;72428;41.978;21.464;2023-12-04T02:49:21;12.90;;;8.30;;
82705;SDS011;72428;41.978;21.464;2023-12-04T02:51:47;13.35;;;9.45;;
82705;SDS011;72428;41.978;21.464;2023-12-04T02:54:13;9.68;;;7.95;;
82705;SDS011;72428;41.978;21.464;2023-12-04T02:56:39;10.95;;;6.88;;
82705;SDS011;72428;41.978;21.464;2023-12-04T02:59:05;13.38;;;9.95;;
82705;SDS011;72428;41.978;21.464;2023-12-04T03:01:31;14.30;;;9.18;;
82705;SDS011;72428;41.978;21.464;2023-12-04T03:03:58;11.90;;;7.07;;
82705;SDS011;72428;41.978;21.464;2023-12-04T03:06:24;12.52;;;8.00;;
82705;SDS011;72428;41.978;21.464;2023-12-04T03:08:50;12.77;;;6.25;;
82705;SDS011;72428;41.978;21.464;2023-12-04T03:11:16;13.00;;;8.13;;
82705;SDS011;72428;41.978;21.464;2023-12-04T03:13:42;11.65;;;7.32;;
82705;SDS011;72428;41.978;21.464;2023-12-04T03:16:17;12.75;;;7.25;;
82705;SDS011;72428;41.978;21.464;2023-12-04T03:18:44;12.30;;;7.43;;
82705;SDS011;72428;41.978;21.464;2023-12-04T03:21:10;10.20;;;5.40;;
82705;SDS011;72428;41.978;21.464;2023-12-04T03:23:36;12.18;;;7.45;;
82705;SDS011;72428;41.978;21.464;2023-12-04T03:26:03;14.45;;;9.77;;
82705;SDS011;72428;41.978;21.464;2023-12-04T03:28:29;14.10;;;8.10;;
82705;SDS011;72428;41.978;21.464;2023-12-04T03:30:55;15.13;;;7.90;;
82705;SDS011;72428;41.978;21.464;2023-12-04T03:33:21;14.57;;;9.05;;
82705;SDS011;72428;41.978;21.464;2023-12-04T03:35:47;14.55;;;8.07;;
82705;SDS011;72428;41.978;21.464;2023-12-04T03:38:13;16.13;;;9.00;;
82705;SDS011;72428;41.978;21.464;2023-12-04T03:40:39;15.23;;;9.45;;
82705;SDS011;72428;41.978;21.464;2023-12-04T03:43:05;11.25;;;8.98;;
82705;SDS011;72428;41.978;21.464;2023-12-04T03:45:31;12.45;;;8.95;;
82705;SDS011;72428;41.978;21.464;2023-12-04T03:47:57;13.68;;;8.00;;
82705;SDS011;72428;41.978;21.464;2023-12-04T03:50:23;23.98;;;8.48;;
82705;SDS011;72428;41.978;21.464;2023-12-04T03:52:49;12.88;;;8.43;;
82705;SDS011;72428;41.978;21.464;2023-12-04T03:55:15;12.30;;;8.48;;
82705;SDS011;72428;41.978;21.464;2023-12-04T03:57:44;14.20;;;8.15;;
82705;SDS011;72428;41.978;21.464;2023-12-04T04:00:10;15.43;;;9.73;;
82705;SDS011;72428;41.978;21.464;2023-12-04T04:02:38;15.00;;;10.13;;
82705;SDS011;72428;41.978;21.464;2023-12-04T04:05:04;11.18;;;8.07;;
82705;SDS011;72428;41.978;21.464;2023-12-04T04:07:30;14.82;;;11.52;;
82705;SDS011;72428;41.978;21.464;2023-12-04T04:09:57;12.15;;;9.45;;
82705;SDS011;72428;41.978;21.464;2023-12-04T04:12:23;20.77;;;9.43;;
82705;SDS011;72428;41.978;21.464;2023-12-04T04:14:49;14.02;;;8.85;;
82705;SDS011;72428;41.978;21.464;2023-12-04T04:17:15;12.38;;;8.80;;
82705;SDS011;72428;41.978;21.464;2023-12-04T04:19:41;15.75;;;8.50;;
82705;SDS011;72428;41.978;21.464;2023-12-04T04:22:07;17.20;;;9.45;;
82705;SDS011;72428;41.978;21.464;2023-12-04T04:24:33;14.88;;;10.13;;
82705;SDS011;72428;41.978;21.464;2023-12-04T04:27:00;18.63;;;12.45;;
82705;SDS011;72428;41.978;21.464;2023-12-04T04:29:26;15.85;;;11.60;;
82705;SDS011;72428;41.978;21.464;2023-12-04T04:31:52;17.92;;;10.55;;
82705;SDS011;72428;41.978;21.464;2023-12-04T04:34:19;18.38;;;9.40;;
82705;SDS011;72428;41.978;21.464;2023-12-04T04:36:45;15.38;;;9.45;;
82705;SDS011;72428;41.978;21.464;2023-12-04T04:39:12;18.35;;;13.05;;
82705;SDS011;72428;41.978;21.464;2023-12-04T04:41:39;16.98;;;10.57;;
82705;SDS011;72428;41.978;21.464;2023-12-04T04:44:05;18.73;;;12.15;;
82705;SDS011;72428;41.978;21.464;2023-12-04T04:46:31;25.00;;;13.18;;
82705;SDS011;72428;41.978;21.464;2023-12-04T04:48:57;21.60;;;11.32;;
82705;SDS011;72428;41.978;21.464;2023-12-04T04:51:23;28.75;;;18.70;;
82705;SDS011;72428;41.978;21.464;2023-12-04T04:53:49;20.35;;;13.40;;
82705;SDS011;72428;41.978;21.464;2023-12-04T04:56:15;21.45;;;9.70;;
82705;SDS011;72428;41.978;21.464;2023-12-04T04:58:41;18.73;;;10.55;;
82705;SDS011;72428;41.978;21.464;2023-12-04T05:01:08;26.25;;;15.57;;
82705;SDS011;72428;41.978;21.464;2023-12-04T05:03:34;24.70;;;12.95;;
82705;SDS011;72428;41.978;21.464;2023-12-04T05:06:00;19.17;;;8.93;;
82705;SDS011;72428;41.978;21.464;2023-12-04T05:08:26;18.15;;;12.27;;
82705;SDS011;72428;41.978;21.464;2023-12-04T05:10:52;39.35;;;12.77;;
82705;SDS011;72428;41.978;21.464;2023-12-04T05:13:18;28.75;;;14.48;;
82705;SDS011;72428;41.978;21.464;2023-12-04T05:15:44;19.63;;;11.93;;
82705;SDS011;72428;41.978;21.464;2023-12-04T05:18:10;22.05;;;9.15;;
82705;SDS011;72428;41.978;21.464;2023-12-04T05:20:36;26.02;;;12.50;;
82705;SDS011;72428;41.978;21.464;2023-12-04T05:23:02;19.52;;;9.90;;
82705;SDS011;72428;41.978;21.464;2023-12-04T05:25:28;16.75;;;10.35;;
82705;SDS011;72428;41.978;21.464;2023-12-04T05:27:55;21.55;;;11.85;;
82705;SDS011;72428;41.978;21.464;2023-12-04T05:30:21;21.30;;;11.55;;
82705;SDS011;72428;41.978;21.464;2023-12-04T05:32:47;18.23;;;11.93;;
82705;SDS011;72428;41.978;21.464;2023-12-04T05:35:14;10.80;;;6.18;;
82705;SDS011;72428;41.978;21.464;2023-12-04T05:37:41;15.05;;;9.93;;
82705;SDS011;72428;41.978;21.464;2023-12-04T05:40:07;27.50;;;11.02;;
82705;SDS011;72428;41.978;21.464;2023-12-04T05:42:33;19.02;;;11.40;;
82705;SDS011;72428;41.978;21.464;2023-12-04T05:44:59;21.90;;;11.55;;
82705;SDS011;72428;41.978;21.464;2023-12-04T05:47:26;22.23;;;12.05;;
82705;SDS011;72428;41.978;21.464;2023-12-04T05:49:52;32.50;;;11.10;;
82705;SDS011;72428;41.978;21.464;2023-12-04T05:52:18;22.30;;;11.38;;
82705;SDS011;72428;41.978;21.464;2023-12-04T05:54:44;25.23;;;15.15;;
82705;SDS011;72428;41.978;21.464;2023-12-04T05:57:10;28.83;;;14.32;;
82705;SDS011;72428;41.978;21.464;2023-12-04T05:59:36;35.22;;;20.27;;
82705;SDS011;72428;41.978;21.464;2023-12-04T06:02:03;18.58;;;10.45;;
82705;SDS011;72428;41.978;21.464;2023-12-04T06:04:29;25.17;;;11.77;;
82705;SDS011;72428;41.978;21.464;2023-12-04T06:06:55;21.40;;;12.50;;
82705;SDS011;72428;41.978;21.464;2023-12-04T06:09:21;23.88;;;12.38;;
82705;SDS011;72428;41.978;21.464;2023-12-04T06:11:47;27.42;;;14.50;;
82705;SDS011;72428;41.978;21.464;2023-12-04T06:14:13;27.50;;;15.25;;
82705;SDS011;72428;41.978;21.464;2023-12-04T06:16:39;26.40;;;13.80;;
82705;SDS011;72428;41.978;21.464;2023-12-04T06:19:05;29.55;;;14.98;;
82705;SDS011;72428;41.978;21.464;2023-12-04T06:21:31;29.33;;;14.90;;
82705;SDS011;72428;41.978;21.464;2023-12-04T06:23:58;27.85;;;14.70;;
82705;SDS011;72428;41.978;21.464;2023-12-04T06:26:24;31.42;;;14.60;;
82705;SDS011;72428;41.978;21.464;2023-12-04T06:28:50;24.05;;;12.30;;
82705;SDS011;72428;41.978;21.464;2023-12-04T06:31:17;27.02;;;14.30;;
82705;SDS011;72428;41.978;21.464;2023-12-04T06:33:43;17.83;;;10.85;;
82705;SDS011;72428;41.978;21.464;2023-12-04T06:36:09;22.58;;;14.18;;
82705;SDS011;72428;41.978;21.464;2023-12-04T06:38:39;20.27;;;11.10;;
82705;SDS011;72428;41.978;21.464;2023-12-04T06:41:06;17.90;;;11.38;;
82705;SDS011;72428;41.978;21.464;2023-12-04T06:43:32;19.95;;;13.10;;
82705;SDS011;72428;41.978;21.464;2023-12-04T06:45:58;26.88;;;16.40;;
82705;SDS011;72428;41.978;21.464;2023-12-04T06:48:24;25.58;;;15.98;;
82705;SDS011;72428;41.978;21.464;2023-12-04T06:50:51;20.40;;;10.93;;
82705;SDS011;72428;41.978;21.464;2023-12-04T06:53:17;26.17;;;12.38;;
82705;SDS011;72428;41.978;21.464;2023-12-04T06:55:43;20.02;;;11.68;;
82705;SDS011;72428;41.978;21.464;2023-12-04T06:58:09;21.50;;;13.00;;
82705;SDS011;72428;41.978;21.464;2023-12-04T07:00:35;22.50;;;12.43;;
82705;SDS011;72428;41.978;21.464;2023-12-04T07:03:01;21.42;;;12.73;;
82705;SDS011;72428;41.978;21.464;2023-12-04T07:05:28;19.90;;;13.38;;
82705;SDS011;72428;41.978;21.464;2023-12-04T07:07:54;39.22;;;13.80;;
82705;SDS011;72428;41.978;21.464;2023-12-04T07:10:20;26.80;;;14.88;;
82705;SDS011;72428;41.978;21.464;2023-12-04T07:12:47;20.50;;;12.55;;
82705;SDS011;72428;41.978;21.464;2023-12-04T07:15:13;19.92;;;12.05;;
82705;SDS011;72428;41.978;21.464;2023-12-04T07:17:39;37.03;;;15.52;;
82705;SDS011;72428;41.978;21.464;2023-12-04T07:20:05;27.05;;;14.27;;
82705;SDS011;72428;41.978;21.464;2023-12-04T07:22:32;34.75;;;22.10;;
82705;SDS011;72428;41.978;21.464;2023-12-04T07:24:58;31.23;;;17.50;;
82705;SDS011;72428;41.978;21.464;2023-12-04T07:27:24;28.70;;;16.38;;
82705;SDS011;72428;41.978;21.464;2023-12-04T07:29:51;33.25;;;20.98;;
82705;SDS011;72428;41.978;21.464;2023-12-04T07:32:17;29.67;;;15.25;;
82705;SDS011;72428;41.978;21.464;2023-12-04T07:34:43;25.33;;;15.32;;
82705;SDS011;72428;41.978;21.464;2023-12-04T07:37:09;30.88;;;15.30;;
82705;SDS011;72428;41.978;21.464;2023-12-04T07:39:35;29.27;;;15.38;;
82705;SDS011;72428;41.978;21.464;2023-12-04T07:42:01;25.90;;;14.68;;
82705;SDS011;72428;41.978;21.464;2023-12-04T07:44:28;27.55;;;13.55;;
82705;SDS011;72428;41.978;21.464;2023-12-04T07:46:55;54.50;;;30.13;;
82705;SDS011;72428;41.978;21.464;2023-12-04T07:49:21;27.00;;;17.25;;
82705;SDS011;72428;41.978;21.464;2023-12-04T07:51:47;25.77;;;16.70;;
82705;SDS011;72428;41.978;21.464;2023-12-04T07:54:13;34.63;;;13.43;;
82705;SDS011;72428;41.978;21.464;2023-12-04T07:56:39;25.42;;;13.50;;
82705;SDS011;72428;41.978;21.464;2023-12-04T07:59:05;25.08;;;16.83;;
82705;SDS011;72428;41.978;21.464;2023-12-04T08:01:31;28.85;;;15.57;;
82705;SDS011;72428;41.978;21.464;2023-12-04T08:03:57;35.80;;;19.17;;
82705;SDS011;72428;41.978;21.464;2023-12-04T08:06:24;90.80;;;57.10;;
82705;SDS011;72428;41.978;21.464;2023-12-04T08:08:50;64.72;;;37.00;;
82705;SDS011;72428;41.978;21.464;2023-12-04T08:11:17;44.67;;;20.58;;
82705;SDS011;72428;41.978;21.464;2023-12-04T08:13:43;24.45;;;16.05;;
82705;SDS011;72428;41.978;21.464;2023-12-04T08:16:13;31.80;;;16.33;;
82705;SDS011;72428;41.978;21.464;2023-12-04T08:18:40;38.13;;;23.17;;
82705;SDS011;72428;41.978;21.464;2023-12-04T08:21:06;46.03;;;29.00;;
82705;SDS011;72428;41.978;21.464;2023-12-04T08:23:33;51.88;;;25.15;;
82705;SDS011;72428;41.978;21.464;2023-12-04T08:25:59;64.55;;;41.08;;
82705;SDS011;72428;41.978;21.464;2023-12-04T08:28:25;42.40;;;23.73;;
82705;SDS011;72428;41.978;21.464;2023-12-04T08:30:51;31.10;;;15.57;;
82705;SDS011;72428;41.978;21.464;2023-12-04T08:33:17;26.60;;;14.55;;
82705;SDS011;72428;41.978;21.464;2023-12-04T08:35:45;22.98;;;13.38;;
82705;SDS011;72428;41.978;21.464;2023-12-04T08:38:12;19.92;;;12.50;;
82705;SDS011;72428;41.978;21.464;2023-12-04T08:40:38;18.30;;;11.35;;
82705;SDS011;72428;41.978;21.464;2023-12-04T08:43:05;23.25;;;11.32;;
82705;SDS011;72428;41.978;21.464;2023-12-04T08:45:31;12.95;;;7.63;;
82705;SDS011;72428;41.978;21.464;2023-12-04T08:47:58;13.25;;;8.52;;
82705;SDS011;72428;41.978;21.464;2023-12-04T08:50:24;23.63;;;13.85;;
82705;SDS011;72428;41.978;21.464;2023-12-04T08:52:50;38.42;;;21.73;;
82705;SDS011;72428;41.978;21.464;2023-12-04T08:55:17;23.70;;;13.65;;
82705;SDS011;72428;41.978;21.464;2023-12-04T08:57:44;19.40;;;11.70;;
82705;SDS011;72428;41.978;21.464;2023-12-04T09:00:10;15.23;;;9.40;;
82705;SDS011;72428;41.978;21.464;2023-12-04T09:02:37;19.40;;;11.68;;
82705;SDS011;72428;41.978;21.464;2023-12-04T09:05:03;19.35;;;11.13;;
82705;SDS011;72428;41.978;21.464;2023-12-04T09:07:29;18.38;;;10.55;;
82705;SDS011;72428;41.978;21.464;2023-12-04T09:09:55;20.35;;;10.90;;
82705;SDS011;72428;41.978;21.464;2023-12-04T09:12:21;45.88;;;24.85;;
82705;SDS011;72428;41.978;21.464;2023-12-04T09:14:47;18.23;;;12.70;;
82705;SDS011;72428;41.978;21.464;2023-12-04T09:17:13;19.85;;;10.30;;
82705;SDS011;72428;41.978;21.464;2023-12-04T09:19:39;16.77;;;9.43;;
82705;SDS011;72428;41.978;21.464;2023-12-04T09:22:05;17.50;;;12.27;;
82705;SDS011;72428;41.978;21.464;2023-12-04T09:24:31;15.93;;;8.00;;
82705;SDS011;72428;41.978;21.464;2023-12-04T09:26:58;16.67;;;9.10;;
82705;SDS011;72428;41.978;21.464;2023-12-04T09:29:24;15.30;;;9.40;;
82705;SDS011;72428;41.978;21.464;2023-12-04T09:31:51;15.73;;;6.60;;
82705;SDS011;72428;41.978;21.464;2023-12-04T09:34:18;24.02;;;14.18;;
82705;SDS011;72428;41.978;21.464;2023-12-04T09:36:45;18.33;;;11.98;;
82705;SDS011;72428;41.978;21.464;2023-12-04T09:39:13;15.60;;;10.18;;
82705;SDS011;72428;41.978;21.464;2023-12-04T09:41:39;18.27;;;10.35;;
82705;SDS011;72428;41.978;21.464;2023-12-04T09:44:07;18.40;;;10.25;;
82705;SDS011;72428;41.978;21.464;2023-12-04T09:46:34;17.63;;;10.63;;
82705;SDS011;72428;41.978;21.464;2023-12-04T09:49:00;16.75;;;10.70;;
82705;SDS011;72428;41.978;21.464;2023-12-04T09:51:26;17.17;;;8.73;;
82705;SDS011;72428;41.978;21.464;2023-12-04T09:53:53;18.27;;;11.32;;
82705;SDS011;72428;41.978;21.464;2023-12-04T09:56:22;22.55;;;14.10;;
82705;SDS011;72428;41.978;21.464;2023-12-04T09:58:51;17.20;;;10.27;;
82705;SDS011;72428;41.978;21.464;2023-12-04T10:01:18;21.10;;;12.38;;
82705;SDS011;72428;41.978;21.464;2023-12-04T10:03:44;15.95;;;9.63;;
82705;SDS011;72428;41.978;21.464;2023-12-04T10:06:11;15.85;;;10.13;;
82705;SDS011;72428;41.978;21.464;2023-12-04T10:08:42;19.65;;;11.07;;
82705;SDS011;72428;41.978;21.464;2023-12-04T10:11:10;21.85;;;14.65;;
82705;SDS011;72428;41.978;21.464;2023-12-04T10:13:36;15.73;;;8.65;;
82705;SDS011;72428;41.978;21.464;2023-12-04T10:16:02;19.42;;;10.60;;
82705;SDS011;72428;41.978;21.464;2023-12-04T10:18:29;12.73;;;6.95;;
82705;SDS011;72428;41.978;21.464;2023-12-04T10:20:56;17.17;;;11.90;;
82705;SDS011;72428;41.978;21.464;2023-12-04T10:23:22;30.40;;;12.02;;
82705;SDS011;72428;41.978;21.464;2023-12-04T10:25:49;17.80;;;11.07;;
82705;SDS011;72428;41.978;21.464;2023-12-04T10:28:18;18.00;;;10.93;;
82705;SDS011;72428;41.978;21.464;2023-12-04T10:30:45;11.00;;;6.25;;
82705;SDS011;72428;41.978;21.464;2023-12-04T10:33:11;16.10;;;10.77;;
82705;SDS011;72428;41.978;21.464;2023-12-04T10:35:38;17.63;;;10.57;;
82705;SDS011;72428;41.978;21.464;2023-12-04T10:38:05;21.20;;;11.93;;
82705;SDS011;72428;41.978;21.464;2023-12-04T10:40:32;19.80;;;11.18;;
82705;SDS011;72428;41.978;21.464;2023-12-04T10:45:52;18.75;;;11.38;;
82705;SDS011;72428;41.978;21.464;2023-12-04T10:48:19;19.35;;;13.52;;
82705;SDS011;72428;41.978;21.464;2023-12-04T10:50:46;17.17;;;10.93;;
82705;SDS011;72428;41.978;21.464;2023-12-04T10:53:13;21.83;;;9.70;;
82705;SDS011;72428;41.978;21.464;2023-12-04T10:55:40;17.90;;;10.25;;
82705;SDS011;72428;41.978;21.464;2023-12-04T10:58:07;18.83;;;12.00;;
82705;SDS011;72428;41.978;21.464;2023-12-04T11:00:34;29.95;;;15.07;;
82705;SDS011;72428;41.978;21.464;2023-12-04T11:03:07;20.98;;;12.05;;
82705;SDS011;72428;41.978;21.464;2023-12-04T11:05:38;17.73;;;10.45;;
82705;SDS011;72428;41.978;21.464;2023-12-04T11:08:05;18.50;;;10.90;;
82705;SDS011;72428;41.978;21.464;2023-12-04T11:10:32;22.23;;;10.82;;
82705;SDS011;72428;41.978;21.464;2023-12-04T11:13:06;26.05;;;11.05;;
82705;SDS011;72428;41.978;21.464;2023-12-04T11:15:34;19.23;;;9.05;;
82705;SDS011;72428;41.978;21.464;2023-12-04T11:18:01;15.60;;;8.27;;
82705;SDS011;72428;41.978;21.464;2023-12-04T11:20:27;11.23;;;7.55;;
82705;SDS011;72428;41.978;21.464;2023-12-04T11:22:55;20.98;;;10.88;;
82705;SDS011;72428;41.978;21.464;2023-12-04T11:25:22;11.45;;;6.70;;
82705;SDS011;72428;41.978;21.464;2023-12-04T11:27:50;18.88;;;11.70;;
82705;SDS011;72428;41.978;21.464;2023-12-04T11:30:16;20.20;;;9.93;;
82705;SDS011;72428;41.978;21.464;2023-12-04T11:32:46;17.40;;;10.10;;
82705;SDS011;72428;41.978;21.464;2023-12-04T11:35:14;16.02;;;9.98;;
82705;SDS011;72428;41.978;21.464;2023-12-04T11:37:42;17.67;;;11.13;;
82705;SDS011;72428;41.978;21.464;2023-12-04T11:40:12;19.95;;;11.82;;
82705;SDS011;72428;41.978;21.464;2023-12-04T11:42:38;17.90;;;10.05;;
82705;SDS011;72428;41.978;21.464;2023-12-04T11:45:05;12.02;;;7.05;;
82705;SDS011;72428;41.978;21.464;2023-12-04T11:47:48;25.05;;;15.30;;
82705;SDS011;72428;41.978;21.464;2023-12-04T11:50:14;15.35;;;9.80;;
82705;SDS011;72428;41.978;21.464;2023-12-04T11:52:40;16.50;;;10.55;;
82705;SDS011;72428;41.978;21.464;2023-12-04T11:55:07;15.95;;;10.60;;
82705;SDS011;72428;41.978;21.464;2023-12-04T11:57:37;19.40;;;10.52;;
82705;SDS011;72428;41.978;21.464;2023-12-04T12:00:08;20.17;;;10.95;;
82705;SDS011;72428;41.978;21.464;2023-12-04T12:02:34;15.98;;;9.40;;
82705;SDS011;72428;41.978;21.464;2023-12-04T12:05:00;10.32;;;7.10;;
82705;SDS011;72428;41.978;21.464;2023-12-04T12:07:27;17.27;;;9.65;;
82705;SDS011;72428;41.978;21.464;2023-12-04T12:09:53;12.75;;;7.13;;
82705;SDS011;72428;41.978;21.464;2023-12-04T12:12:19;17.08;;;10.48;;
82705;SDS011;72428;41.978;21.464;2023-12-04T12:14:45;25.83;;;14.63;;
82705;SDS011;72428;41.978;21.464;2023-12-04T12:17:11;14.95;;;8.65;;
82705;SDS011;72428;41.978;21.464;2023-12-04T12:19:39;11.93;;;7.97;;
82705;SDS011;72428;41.978;21.464;2023-12-04T12:22:05;12.95;;;9.32;;
82705;SDS011;72428;41.978;21.464;2023-12-04T12:24:31;13.82;;;7.63;;
82705;SDS011;72428;41.978;21.464;2023-12-04T12:26:57;15.27;;;8.20;;
82705;SDS011;72428;41.978;21.464;2023-12-04T12:29:23;11.82;;;7.30;;
82705;SDS011;72428;41.978;21.464;2023-12-04T12:31:49;15.75;;;10.32;;
82705;SDS011;72428;41.978;21.464;2023-12-04T12:34:16;13.90;;;10.05;;
82705;SDS011;72428;41.978;21.464;2023-12-04T12:36:42;17.05;;;11.15;;
82705;SDS011;72428;41.978;21.464;2023-12-04T12:39:09;13.43;;;7.75;;
82705;SDS011;72428;41.978;21.464;2023-12-04T12:41:37;13.88;;;7.65;;
82705;SDS011;72428;41.978;21.464;2023-12-04T12:44:03;14.23;;;8.15;;
82705;SDS011;72428;41.978;21.464;2023-12-04T12:46:29;15.43;;;8.60;;
82705;SDS011;72428;41.978;21.464;2023-12-04T12:48:55;18.25;;;11.50;;
82705;SDS011;72428;41.978;21.464;2023-12-04T12:51:23;18.05;;;8.70;;
82705;SDS011;72428;41.978;21.464;2023-12-04T12:53:49;15.27;;;8.45;;
82705;SDS011;72428;41.978;21.464;2023-12-04T12:56:18;10.88;;;5.95;;
82705;SDS011;72428;41.978;21.464;2023-12-04T12:58:44;15.77;;;10.80;;
82705;SDS011;72428;41.978;21.464;2023-12-04T13:01:10;14.90;;;7.90;;
82705;SDS011;72428;41.978;21.464;2023-12-04T13:03:36;16.08;;;9.88;;
82705;SDS011;72428;41.978;21.464;2023-12-04T13:06:03;18.67;;;10.13;;
82705;SDS011;72428;41.978;21.464;2023-12-04T13:08:29;18.58;;;10.30;;
82705;SDS011;72428;41.978;21.464;2023-12-04T13:10:55;14.27;;;8.57;;
82705;SDS011;72428;41.978;21.464;2023-12-04T13:13:21;15.02;;;9.02;;
82705;SDS011;72428;41.978;21.464;2023-12-04T13:15:47;19.63;;;12.85;;
82705;SDS011;72428;41.978;21.464;2023-12-04T13:18:13;16.83;;;8.05;;
82705;SDS011;72428;41.978;21.464;2023-12-04T13:20:39;15.23;;;9.60;;
82705;SDS011;72428;41.978;21.464;2023-12-04T13:23:06;17.38;;;9.85;;
82705;SDS011;72428;41.978;21.464;2023-12-04T13:25:32;15.63;;;9.15;;
82705;SDS011;72428;41.978;21.464;2023-12-04T13:27:58;15.50;;;9.88;;
82705;SDS011;72428;41.978;21.464;2023-12-04T13:30:24;18.13;;;9.25;;
82705;SDS011;72428;41.978;21.464;2023-12-04T13:32:50;15.60;;;8.55;;
82705;SDS011;72428;41.978;21.464;2023-12-04T13:35:17;15.30;;;8.77;;
82705;SDS011;72428;41.978;21.464;2023-12-04T13:37:43;14.35;;;7.90;;
82705;SDS011;72428;41.978;21.464;2023-12-04T13:40:09;15.25;;;9.65;;
82705;SDS011;72428;41.978;21.464;2023-12-04T13:42:41;15.13;;;8.57;;
82705;SDS011;72428;41.978;21.464;2023-12-04T13:45:25;15.00;;;8.10;;
82705;SDS011;72428;41.978;21.464;2023-12-04T13:47:51;14.45;;;8.63;;
82705;SDS011;72428;41.978;21.464;2023-12-04T13:50:18;16.77;;;9.25;;
82705;SDS011;72428;41.978;21.464;2023-12-04T13:52:45;16.17;;;9.18;;
82705;SDS011;72428;41.978;21.464;2023-12-04T13:55:20;15.68;;;9.73;;
82705;SDS011;72428;41.978;21.464;2023-12-04T13:57:59;13.35;;;9.30;;
82705;SDS011;72428;41.978;21.464;2023-12-04T14:00:25;20.33;;;12.38;;
82705;SDS011;72428;41.978;21.464;2023-12-04T14:02:54;32.85;;;18.83;;
82705;SDS011;72428;41.978;21.464;2023-12-04T14:05:28;18.92;;;11.93;;
82705;SDS011;72428;41.978;21.464;2023-12-04T14:10:31;15.57;;;9.95;;
82705;SDS011;72428;41.978;21.464;2023-12-04T14:12:57;17.92;;;11.90;;
82705;SDS011;72428;41.978;21.464;2023-12-04T14:15:23;30.63;;;17.08;;